Have a Safe July 4th! 

Flight Track Log - Related Links

Times and Time Zones

All times are in EDT time to prevent confusion due to time zone crossing. See the BNA785 flight status page for this flight to view local times or setup timezone preferences in your user account.

Time Position Orientation Groundspeed Altitude Reporting Facility
EDT Latitude Longitude Course Direction KTS MPH feet Rate Location/Type
Wed 09:28:13 AM 40.1178 -78.5469 81° East 194 223 4,000  Level Cleveland Center
Wed 09:29:42 AM 40.1339 -78.4106 81° East 306 352 7,400 2,664 Climbing Cleveland Center
Wed 09:31:56 AM 40.1342 -78.1619 90° East 292 336 13,900 2,351 Climbing New York Center
Wed 09:32:56 AM 40.1333 -78.0450 90° East 305 351 15,000 550 Climbing New York Center
Wed 09:33:56 AM 40.1347 -77.9175 89° East 331 381 15,000  Level New York Center
Wed 09:34:56 AM 40.1322 -77.7869 91° East 346 398 15,000  Level New York Center
Wed 09:35:56 AM 40.1336 -77.6567 89° East 352 405 15,000 50 Level New York Center
Wed 09:36:56 AM 40.1306 -77.5286 92° East 347 399 15,100 50 Climbing New York Center
Wed 09:37:56 AM 40.1311 -77.4067 90° East 347 399 15,100  Level New York Center
Wed 09:38:56 AM 40.1297 -77.2814 91° East 347 399 15,100 -50 Level New York Center
Wed 09:39:56 AM 40.1283 -77.1564 91° East 347 399 15,000  Descending New York Center
Wed 09:40:56 AM 40.1286 -77.0317 90° East 342 394 15,100 50 Climbing New York Center
Wed 09:41:56 AM 40.1250 -76.9061 92° East 342 394 15,100 -400 Level New York Center
Wed 09:42:56 AM 40.1078 -76.7933 101° East 352 405 14,300 -950 Descending New York Center
Wed 09:43:56 AM 40.0897 -76.6561 100° East 352 405 13,200 -1,200 Descending New York Center
Wed 09:44:56 AM 40.0747 -76.5383 99° East 341 392 11,900 -1,600 Descending New York Center
Wed 09:45:56 AM 40.0594 -76.4231 100° East 336 387 10,000 -1,450 Descending New York Center
Wed 09:46:56 AM 40.0469 -76.3325 100° East 304 350 9,000 -500 Descending New York Center
Wed 09:47:56 AM 40.0375 -76.2206 96° East 294 338 9,000 -100 Level New York Center
Wed 09:48:56 AM 40.0181 -76.1025 102° East 299 344 8,800 -900 Descending New York Center
Wed 09:49:56 AM 40.0103 -75.9989 96° East 294 338 7,200 -950 Descending New York Center
Wed 09:50:56 AM 40.0267 -75.9106 76° East 287 330 6,900 -550 Descending New York Center
Wed 09:51:56 AM 40.0431 -75.8197 77° East 269 310 6,100 -450 Descending New York Center
Wed 09:52:56 AM 40.0639 -75.7181 75° East 259 298 6,000 -400 Descending New York Center
Wed 09:53:56 AM 40.0781 -75.6269 78° East 264 304 5,300 -900 Descending New York Center
Wed 09:54:56 AM 40.0989 -75.5253 75° East 264 304 4,200 -650 Descending New York Center
Wed 09:55:56 AM 40.1147 -75.4447 76° East 259 298 4,000 -100 Descending New York Center
Wed 09:56:56 AM 40.1353 -75.3431 75° East 259 298 4,000  Level New York Center
Wed 09:57:56 AM 40.1536 -75.2519 75° East 259 298 4,000 -250 Level New York Center
Wed 09:58:56 AM 40.1694 -75.1578 78° East 259 298 3,500 -500 Descending New York Center
Wed 09:59:56 AM 40.1894 -75.0694 73° East 254 292 3,000 -250 Descending New York Center
Wed 10:00:56 AM 40.2050 -74.9861 76° East 244 281 3,000  Level New York Center
Wed 10:01:56 AM 40.2181 -74.9108 77° East 220 253 3,000 -329 Level New York Center
Wed 10:03:40 AM 40.1500 -74.9000 173° South 162 186 2,100 -560 Descending Philadelphia TRACON
Wed 10:04:58 AM 40.1333 -74.9500 246° West 106 122 1,300 -583 Descending Philadelphia TRACON
Wed 10:06:04 AM 40.1000 -74.9833 217° Southwest 104 120 700 -545 Descending Philadelphia TRACON
Wed 10:08:00 AM 40.0819 -75.0106 185° South  Level Estimated

Login

Don't have an account? Register now (free) for customized features, flight alerts, and more!